sensor_id;sensor_type;location;lat;lon;timestamp;pressure;altitude;pressure_sealevel;temperature;humidity
70338;BME280;57757;53.198;19.646;2023-04-02T00:03:05;99405.92;;;4.80;71.72
70338;BME280;57757;53.198;19.646;2023-04-02T00:08:28;99413.90;;;4.77;71.86
70338;BME280;57757;53.198;19.646;2023-04-02T00:11:06;99418.06;;;4.74;71.92
70338;BME280;57757;53.198;19.646;2023-04-02T00:13:43;99419.66;;;4.70;71.61
70338;BME280;57757;53.198;19.646;2023-04-02T00:16:22;99421.77;;;4.67;71.68
70338;BME280;57757;53.198;19.646;2023-04-02T00:18:54;99422.17;;;4.61;71.56
70338;BME280;57757;53.198;19.646;2023-04-02T00:21:28;99425.81;;;4.60;71.76
70338;BME280;57757;53.198;19.646;2023-04-02T00:24:02;99433.58;;;4.59;71.88
70338;BME280;57757;53.198;19.646;2023-04-02T00:26:39;99436.16;;;4.58;71.88
70338;BME280;57757;53.198;19.646;2023-04-02T00:29:11;99437.40;;;4.56;71.90
70338;BME280;57757;53.198;19.646;2023-04-02T00:32:08;99436.39;;;4.54;71.78
70338;BME280;57757;53.198;19.646;2023-04-02T00:34:43;99439.65;;;4.54;71.80
70338;BME280;57757;53.198;19.646;2023-04-02T00:37:16;99441.38;;;4.54;71.80
70338;BME280;57757;53.198;19.646;2023-04-02T00:39:54;99441.05;;;4.52;71.68
70338;BME280;57757;53.198;19.646;2023-04-02T00:42:25;99444.67;;;4.52;71.79
70338;BME280;57757;53.198;19.646;2023-04-02T00:44:56;99449.30;;;4.53;71.82
70338;BME280;57757;53.198;19.646;2023-04-02T00:47:31;99447.06;;;4.53;71.76
70338;BME280;57757;53.198;19.646;2023-04-02T00:50:05;99453.81;;;4.52;71.79
70338;BME280;57757;53.198;19.646;2023-04-02T00:52:35;99458.45;;;4.52;71.89
70338;BME280;57757;53.198;19.646;2023-04-02T00:58:04;99457.56;;;4.55;71.99
70338;BME280;57757;53.198;19.646;2023-04-02T01:00:39;99460.32;;;4.54;71.78
70338;BME280;57757;53.198;19.646;2023-04-02T01:06:12;99474.12;;;4.52;71.68
70338;BME280;57757;53.198;19.646;2023-04-02T01:23:12;99488.59;;;4.33;71.74
70338;BME280;57757;53.198;19.646;2023-04-02T01:25:58;99494.30;;;4.29;71.56
70338;BME280;57757;53.198;19.646;2023-04-02T01:31:20;99499.66;;;4.25;71.94
70338;BME280;57757;53.198;19.646;2023-04-02T01:33:49;99502.09;;;4.25;71.85
70338;BME280;57757;53.198;19.646;2023-04-02T01:42:25;99503.34;;;4.20;71.73
70338;BME280;57757;53.198;19.646;2023-04-02T01:45:20;99505.59;;;4.18;71.72
70338;BME280;57757;53.198;19.646;2023-04-02T01:47:52;99508.70;;;4.14;71.68
70338;BME280;57757;53.198;19.646;2023-04-02T01:50:36;99515.08;;;4.15;71.83
70338;BME280;57757;53.198;19.646;2023-04-02T01:53:16;99521.44;;;4.15;71.78
70338;BME280;57757;53.198;19.646;2023-04-02T01:55:59;99526.09;;;4.15;71.71
70338;BME280;57757;53.198;19.646;2023-04-02T01:58:30;99530.56;;;4.15;71.67
70338;BME280;57757;53.198;19.646;2023-04-02T02:01:04;99529.88;;;4.14;71.62
70338;BME280;57757;53.198;19.646;2023-04-02T02:03:34;99534.52;;;4.15;71.67
70338;BME280;57757;53.198;19.646;2023-04-02T02:06:04;99539.36;;;4.13;71.51
70338;BME280;57757;53.198;19.646;2023-04-02T02:08:38;99543.86;;;4.09;71.51
70338;BME280;57757;53.198;19.646;2023-04-02T02:11:12;99541.46;;;4.07;71.48
70338;BME280;57757;53.198;19.646;2023-04-02T02:13:46;99545.45;;;4.05;71.56
70338;BME280;57757;53.198;19.646;2023-04-02T02:16:16;99549.41;;;4.05;71.59
70338;BME280;57757;53.198;19.646;2023-04-02T02:18:49;99551.98;;;4.04;71.60
70338;BME280;57757;53.198;19.646;2023-04-02T02:21:48;99554.39;;;4.03;71.54
70338;BME280;57757;53.198;19.646;2023-04-02T02:24:23;99557.86;;;4.02;71.51
70338;BME280;57757;53.198;19.646;2023-04-02T02:29:37;99566.64;;;4.01;71.51
70338;BME280;57757;53.198;19.646;2023-04-02T02:32:09;99568.52;;;4.02;71.65
70338;BME280;57757;53.198;19.646;2023-04-02T02:34:44;99568.70;;;4.02;71.51
70338;BME280;57757;53.198;19.646;2023-04-02T02:37:21;99571.79;;;3.99;71.57
70338;BME280;57757;53.198;19.646;2023-04-02T02:39:58;99571.63;;;4.00;71.50
70338;BME280;57757;53.198;19.646;2023-04-02T02:42:38;99573.17;;;3.99;71.55
70338;BME280;57757;53.198;19.646;2023-04-02T02:45:18;99575.08;;;3.99;71.51
70338;BME280;57757;53.198;19.646;2023-04-02T02:47:50;99577.30;;;3.99;71.45
70338;BME280;57757;53.198;19.646;2023-04-02T02:50:24;99576.98;;;3.98;71.35
70338;BME280;57757;53.198;19.646;2023-04-02T02:52:54;99579.05;;;3.98;71.53
70338;BME280;57757;53.198;19.646;2023-04-02T02:55:27;99581.63;;;3.98;71.49
70338;BME280;57757;53.198;19.646;2023-04-02T03:00:31;99592.79;;;4.01;71.55
70338;BME280;57757;53.198;19.646;2023-04-02T03:03:01;99595.20;;;4.01;71.60
70338;BME280;57757;53.198;19.646;2023-04-02T03:05:31;99597.27;;;3.99;71.34
70338;BME280;57757;53.198;19.646;2023-04-02T03:07:59;99599.87;;;3.98;71.45
70338;BME280;57757;53.198;19.646;2023-04-02T03:15:53;99609.35;;;3.93;71.39
70338;BME280;57757;53.198;19.646;2023-04-02T03:32:51;99626.55;;;3.92;71.43
70338;BME280;57757;53.198;19.646;2023-04-02T03:38:05;99635.15;;;3.93;71.51
70338;BME280;57757;53.198;19.646;2023-04-02T03:40:43;99642.03;;;3.93;71.48
70338;BME280;57757;53.198;19.646;2023-04-02T03:43:23;99641.00;;;3.93;71.44
70338;BME280;57757;53.198;19.646;2023-04-02T03:45:59;99648.92;;;3.91;71.44
70338;BME280;57757;53.198;19.646;2023-04-02T03:48:38;99652.38;;;3.88;71.44
70338;BME280;57757;53.198;19.646;2023-04-02T03:51:20;99657.22;;;3.87;71.51
70338;BME280;57757;53.198;19.646;2023-04-02T03:53:50;99656.84;;;3.88;71.55
70338;BME280;57757;53.198;19.646;2023-04-02T03:56:26;99661.68;;;3.87;71.47
70338;BME280;57757;53.198;19.646;2023-04-02T03:59:46;99663.74;;;3.85;71.42
70338;BME280;57757;53.198;19.646;2023-04-02T04:04:59;99675.81;;;3.79;71.60
70338;BME280;57757;53.198;19.646;2023-04-02T04:07:37;99675.48;;;3.79;71.57
70338;BME280;57757;53.198;19.646;2023-04-02T04:10:07;99679.44;;;3.79;71.57
70338;BME280;57757;53.198;19.646;2023-04-02T04:12:46;99687.67;;;3.79;71.61
70338;BME280;57757;53.198;19.646;2023-04-02T04:15:24;99692.14;;;3.82;71.59
70338;BME280;57757;53.198;19.646;2023-04-02T04:21:01;99701.78;;;3.83;71.49
70338;BME280;57757;53.198;19.646;2023-04-02T04:23:33;99704.16;;;3.84;71.57
70338;BME280;57757;53.198;19.646;2023-04-02T04:26:06;99708.30;;;3.84;71.56
70338;BME280;57757;53.198;19.646;2023-04-02T04:28:59;99711.73;;;3.86;71.72
70338;BME280;57757;53.198;19.646;2023-04-02T04:31:36;99711.04;;;3.88;71.67
70338;BME280;57757;53.198;19.646;2023-04-02T04:34:31;99715.67;;;3.89;71.61
70338;BME280;57757;53.198;19.646;2023-04-02T04:37:04;99714.98;;;3.89;71.40
70338;BME280;57757;53.198;19.646;2023-04-02T04:39:40;99717.05;;;3.90;71.52
70338;BME280;57757;53.198;19.646;2023-04-02T04:42:32;99724.61;;;3.90;71.52
70338;BME280;57757;53.198;19.646;2023-04-02T04:45:21;99725.46;;;3.92;71.68
70338;BME280;57757;53.198;19.646;2023-04-02T04:47:59;99724.78;;;3.94;71.67
70338;BME280;57757;53.198;19.646;2023-04-02T04:50:36;99732.52;;;3.94;71.59
70338;BME280;57757;53.198;19.646;2023-04-02T04:53:07;99733.20;;;3.94;71.55
70338;BME280;57757;53.198;19.646;2023-04-02T05:09:06;99750.41;;;3.92;71.49
70338;BME280;57757;53.198;19.646;2023-04-02T05:11:50;99757.12;;;3.93;71.56
70338;BME280;57757;53.198;19.646;2023-04-02T05:17:05;99766.75;;;3.95;71.51
70338;BME280;57757;53.198;19.646;2023-04-02T05:19:43;99772.95;;;3.93;71.42
70338;BME280;57757;53.198;19.646;2023-04-02T05:25:29;99779.52;;;3.87;71.50
70338;BME280;57757;53.198;19.646;2023-04-02T05:28:14;99781.40;;;3.87;71.57
70338;BME280;57757;53.198;19.646;2023-04-02T05:30:48;99783.81;;;3.86;71.54
70338;BME280;57757;53.198;19.646;2023-04-02T05:33:25;99788.80;;;3.86;71.54
70338;BME280;57757;53.198;19.646;2023-04-02T05:36:24;99789.98;;;3.88;71.59
70338;BME280;57757;53.198;19.646;2023-04-02T05:38:53;99794.98;;;3.90;71.48
70338;BME280;57757;53.198;19.646;2023-04-02T05:44:06;99798.05;;;3.92;71.49
70338;BME280;57757;53.198;19.646;2023-04-02T05:47:03;99804.08;;;3.91;71.60
70338;BME280;57757;53.198;19.646;2023-04-02T05:52:07;99815.96;;;3.94;71.36
70338;BME280;57757;53.198;19.646;2023-04-02T05:54:44;99823.35;;;3.94;71.22
70338;BME280;57757;53.198;19.646;2023-04-02T05:57:24;99822.84;;;3.95;71.41
70338;BME280;57757;53.198;19.646;2023-04-02T06:00:17;99826.09;;;3.96;71.38
70338;BME280;57757;53.198;19.646;2023-04-02T06:02:54;99827.98;;;3.97;71.51
70338;BME280;57757;53.198;19.646;2023-04-02T06:05:34;99830.05;;;3.97;71.39
70338;BME280;57757;53.198;19.646;2023-04-02T06:08:13;99832.64;;;3.97;71.39
70338;BME280;57757;53.198;19.646;2023-04-02T06:10:50;99835.38;;;3.96;71.35
70338;BME280;57757;53.198;19.646;2023-04-02T06:13:22;99836.92;;;3.96;71.42
70338;BME280;57757;53.198;19.646;2023-04-02T06:15:50;99841.06;;;4.00;71.59
70338;BME280;57757;53.198;19.646;2023-04-02T06:18:21;99840.87;;;4.05;71.75
70338;BME280;57757;53.198;19.646;2023-04-02T06:20:51;99838.11;;;4.09;71.52
70338;BME280;57757;53.198;19.646;2023-04-02T06:26:38;99843.78;;;4.12;71.41
70338;BME280;57757;53.198;19.646;2023-04-02T06:29:12;99850.64;;;4.15;71.31
70338;BME280;57757;53.198;19.646;2023-04-02T06:31:59;99853.41;;;4.16;71.60
70338;BME280;57757;53.198;19.646;2023-04-02T06:34:29;99860.98;;;4.17;71.40
70338;BME280;57757;53.198;19.646;2023-04-02T06:39:44;99861.64;;;4.24;71.46
70338;BME280;57757;53.198;19.646;2023-04-02T06:42:16;99867.32;;;4.24;71.49
70338;BME280;57757;53.198;19.646;2023-04-02T06:44:45;99872.66;;;4.24;71.48
70338;BME280;57757;53.198;19.646;2023-04-02T06:52:49;99883.67;;;4.23;71.39
70338;BME280;57757;53.198;19.646;2023-04-02T06:58:18;99889.70;;;4.21;71.36
70338;BME280;57757;53.198;19.646;2023-04-02T07:00:48;99895.56;;;4.20;71.36
70338;BME280;57757;53.198;19.646;2023-04-02T07:03:23;99899.34;;;4.19;71.32
70338;BME280;57757;53.198;19.646;2023-04-02T07:05:52;99905.36;;;4.19;71.58
70338;BME280;57757;53.198;19.646;2023-04-02T07:08:20;99905.55;;;4.20;71.40
70338;BME280;57757;53.198;19.646;2023-04-02T07:10:48;99910.88;;;4.21;71.58
70338;BME280;57757;53.198;19.646;2023-04-02T07:13:18;99911.38;;;4.25;71.62
70338;BME280;57757;53.198;19.646;2023-04-02T07:15:49;99916.70;;;4.31;71.74
70338;BME280;57757;53.198;19.646;2023-04-02T07:18:33;99919.96;;;4.36;71.62
70338;BME280;57757;53.198;19.646;2023-04-02T07:21:01;99922.88;;;4.38;71.45
70338;BME280;57757;53.198;19.646;2023-04-02T07:23:29;99930.29;;;4.40;71.48
70338;BME280;57757;53.198;19.646;2023-04-02T07:25:57;99930.98;;;4.39;71.51
70338;BME280;57757;53.198;19.646;2023-04-02T07:28:25;99934.42;;;4.35;71.47
70338;BME280;57757;53.198;19.646;2023-04-02T07:30:53;99936.48;;;4.31;71.32
70338;BME280;57757;53.198;19.646;2023-04-02T07:33:24;99943.73;;;4.25;71.35
70338;BME280;57757;53.198;19.646;2023-04-02T07:35:53;99950.11;;;4.23;71.39
70338;BME280;57757;53.198;19.646;2023-04-02T07:38:22;99951.99;;;4.22;71.60
70338;BME280;57757;53.198;19.646;2023-04-02T07:40:51;99954.92;;;4.24;71.66
70338;BME280;57757;53.198;19.646;2023-04-02T07:43:18;99959.91;;;4.26;71.55
70338;BME280;57757;53.198;19.646;2023-04-02T07:45:46;99965.60;;;4.28;71.55
70338;BME280;57757;53.198;19.646;2023-04-02T07:48:13;99969.89;;;4.27;71.43
70338;BME280;57757;53.198;19.646;2023-04-02T07:50:41;99972.31;;;4.25;71.40
70338;BME280;57757;53.198;19.646;2023-04-02T07:53:27;99974.55;;;4.24;71.54
70338;BME280;57757;53.198;19.646;2023-04-02T07:56:01;99979.02;;;4.25;71.40
70338;BME280;57757;53.198;19.646;2023-04-02T07:58:30;99977.81;;;4.25;71.38
70338;BME280;57757;53.198;19.646;2023-04-02T08:00:59;99980.23;;;4.27;71.27
70338;BME280;57757;53.198;19.646;2023-04-02T08:03:28;99988.30;;;4.29;71.50
70338;BME280;57757;53.198;19.646;2023-04-02T08:05:57;99991.23;;;4.30;71.20
70338;BME280;57757;53.198;19.646;2023-04-02T08:08:25;99998.13;;;4.27;71.27
70338;BME280;57757;53.198;19.646;2023-04-02T08:10:52;100000.02;;;4.24;71.17
70338;BME280;57757;53.198;19.646;2023-04-02T08:13:22;100002.95;;;4.23;71.33
70338;BME280;57757;53.198;19.646;2023-04-02T08:15:49;100001.08;;;4.21;71.39
70338;BME280;57757;53.198;19.646;2023-04-02T08:18:21;100002.61;;;4.20;71.35
70338;BME280;57757;53.198;19.646;2023-04-02T08:20:49;100004.51;;;4.17;71.18
70338;BME280;57757;53.198;19.646;2023-04-02T08:23:18;100005.71;;;4.14;71.50
70338;BME280;57757;53.198;19.646;2023-04-02T08:25:47;100009.49;;;4.12;71.36
70338;BME280;57757;53.198;19.646;2023-04-02T08:28:15;100011.05;;;4.09;71.46
70338;BME280;57757;53.198;19.646;2023-04-02T08:30:45;100015.87;;;4.07;71.44
70338;BME280;57757;53.198;19.646;2023-04-02T08:33:14;100018.27;;;4.07;71.59
70338;BME280;57757;53.198;19.646;2023-04-02T08:35:46;100020.52;;;4.06;71.64
70338;BME280;57757;53.198;19.646;2023-04-02T08:38:15;100022.22;;;4.07;71.58
70338;BME280;57757;53.198;19.646;2023-04-02T08:40:50;100022.22;;;4.07;71.72
70338;BME280;57757;53.198;19.646;2023-04-02T08:48:58;100028.60;;;4.08;71.78
70338;BME280;57757;53.198;19.646;2023-04-02T08:51:30;100036.33;;;4.07;71.64
70338;BME280;57757;53.198;19.646;2023-04-02T08:54:02;100040.14;;;4.10;71.86
70338;BME280;57757;53.198;19.646;2023-04-02T08:56:42;100039.77;;;4.14;71.79
70338;BME280;57757;53.198;19.646;2023-04-02T08:59:22;100043.91;;;4.16;71.78
70338;BME280;57757;53.198;19.646;2023-04-02T09:04:45;100048.56;;;4.22;71.67
70338;BME280;57757;53.198;19.646;2023-04-02T09:07:15;100052.02;;;4.23;71.60
70338;BME280;57757;53.198;19.646;2023-04-02T09:09:46;100058.03;;;4.25;71.73
70338;BME280;57757;53.198;19.646;2023-04-02T09:12:19;100064.23;;;4.25;71.77
70338;BME280;57757;53.198;19.646;2023-04-02T09:17:58;100065.95;;;4.23;71.57
70338;BME280;57757;53.198;19.646;2023-04-02T09:20:26;100072.66;;;4.23;71.68
70338;BME280;57757;53.198;19.646;2023-04-02T09:22:55;100078.52;;;4.24;71.71
70338;BME280;57757;53.198;19.646;2023-04-02T09:25:26;100077.82;;;4.26;71.79
70338;BME280;57757;53.198;19.646;2023-04-02T09:27:57;100084.19;;;4.26;71.80
70338;BME280;57757;53.198;19.646;2023-04-02T09:33:13;100087.48;;;4.29;71.80
70338;BME280;57757;53.198;19.646;2023-04-02T09:35:56;100092.46;;;4.29;71.69
70338;BME280;57757;53.198;19.646;2023-04-02T09:38:27;100095.39;;;4.31;71.90
70338;BME280;57757;53.198;19.646;2023-04-02T09:41:16;100098.83;;;4.34;71.86
70338;BME280;57757;53.198;19.646;2023-04-02T09:43:45;100103.14;;;4.37;71.85
70338;BME280;57757;53.198;19.646;2023-04-02T09:46:23;100107.96;;;4.36;71.60
70338;BME280;57757;53.198;19.646;2023-04-02T09:48:57;100109.16;;;4.33;71.64
70338;BME280;57757;53.198;19.646;2023-04-02T09:51:32;100109.84;;;4.30;71.52
70338;BME280;57757;53.198;19.646;2023-04-02T09:56:30;100116.73;;;4.28;71.56
70338;BME280;57757;53.198;19.646;2023-04-02T09:59:15;100123.43;;;4.29;71.69
70338;BME280;57757;53.198;19.646;2023-04-02T10:04:43;100128.78;;;4.36;71.72
70338;BME280;57757;53.198;19.646;2023-04-02T10:07:36;100133.95;;;4.42;71.94
70338;BME280;57757;53.198;19.646;2023-04-02T10:10:23;100137.58;;;4.47;71.85
70338;BME280;57757;53.198;19.646;2023-04-02T10:13:00;100141.20;;;4.51;71.78
70338;BME280;57757;53.198;19.646;2023-04-02T10:15:34;100143.61;;;4.55;71.91
70338;BME280;57757;53.198;19.646;2023-04-02T10:21:16;100146.53;;;4.57;71.33
70338;BME280;57757;53.198;19.646;2023-04-02T10:23:44;100152.05;;;4.56;71.44
70338;BME280;57757;53.198;19.646;2023-04-02T10:29:06;100153.59;;;4.59;71.63
70338;BME280;57757;53.198;19.646;2023-04-02T10:32:03;100155.84;;;4.65;71.71
70338;BME280;57757;53.198;19.646;2023-04-02T10:49:08;100175.46;;;4.95;71.50
70338;BME280;57757;53.198;19.646;2023-04-02T11:05:17;100201.98;;;5.14;71.27
70338;BME280;57757;53.198;19.646;2023-04-02T11:07:52;100205.60;;;5.14;71.40
70338;BME280;57757;53.198;19.646;2023-04-02T11:10:22;100206.31;;;5.13;71.31
70338;BME280;57757;53.198;19.646;2023-04-02T11:12:55;100212.16;;;5.12;71.29
70338;BME280;57757;53.198;19.646;2023-04-02T11:15:25;100217.85;;;5.12;71.31
70338;BME280;57757;53.198;19.646;2023-04-02T11:17:53;100216.98;;;5.14;71.24
70338;BME280;57757;53.198;19.646;2023-04-02T11:23:20;100226.80;;;5.17;71.12
70338;BME280;57757;53.198;19.646;2023-04-02T11:25:47;100226.13;;;5.16;71.04
70338;BME280;57757;53.198;19.646;2023-04-02T11:28:31;100229.74;;;5.19;71.20
70338;BME280;57757;53.198;19.646;2023-04-02T11:30:59;100234.04;;;5.24;71.36
70338;BME280;57757;53.198;19.646;2023-04-02T11:39:10;100241.44;;;5.33;71.20
70338;BME280;57757;53.198;19.646;2023-04-02T11:44:21;100250.06;;;5.42;71.16
70338;BME280;57757;53.198;19.646;2023-04-02T11:46:50;100247.27;;;5.48;71.34
70338;BME280;57757;53.198;19.646;2023-04-02T11:49:35;100250.55;;;5.51;71.06
70338;BME280;57757;53.198;19.646;2023-04-02T11:52:27;100248.83;;;5.53;70.94
70338;BME280;57757;53.198;19.646;2023-04-02T11:55:19;100254.34;;;5.56;70.97
70338;BME280;57757;53.198;19.646;2023-04-02T11:58:00;100260.02;;;5.62;71.13
70338;BME280;57757;53.198;19.646;2023-04-02T12:03:42;100262.39;;;5.77;71.14
70338;BME280;57757;53.198;19.646;2023-04-02T12:09:14;100257.38;;;5.91;71.00
70338;BME280;57757;53.198;19.646;2023-04-02T12:11:45;100264.08;;;6.00;71.06
70338;BME280;57757;53.198;19.646;2023-04-02T12:14:32;100264.05;;;6.10;71.11
70338;BME280;57757;53.198;19.646;2023-04-02T12:17:29;100265.20;;;6.22;71.02
70338;BME280;57757;53.198;19.646;2023-04-02T12:20:17;100272.25;;;6.29;70.86
70338;BME280;57757;53.198;19.646;2023-04-02T12:22:49;100278.95;;;6.34;70.70
70338;BME280;57757;53.198;19.646;2023-04-02T12:25:36;100273.95;;;6.35;70.68
70338;BME280;57757;53.198;19.646;2023-04-02T12:30:37;100284.81;;;6.39;70.52
70338;BME280;57757;53.198;19.646;2023-04-02T12:33:32;100281.70;;;6.38;70.38
70338;BME280;57757;53.198;19.646;2023-04-02T12:36:06;100289.48;;;6.38;70.24
70338;BME280;57757;53.198;19.646;2023-04-02T12:38:53;100287.74;;;6.37;70.28
70338;BME280;57757;53.198;19.646;2023-04-02T12:44:04;100290.88;;;6.36;69.99
70338;BME280;57757;53.198;19.646;2023-04-02T12:46:33;100295.20;;;6.34;69.99
70338;BME280;57757;53.198;19.646;2023-04-02T12:49:10;100301.42;;;6.35;70.02
70338;BME280;57757;53.198;19.646;2023-04-02T12:51:42;100306.92;;;6.37;70.05
70338;BME280;57757;53.198;19.646;2023-04-02T12:54:14;100310.38;;;6.39;69.88
70338;BME280;57757;53.198;19.646;2023-04-02T12:56:43;100310.17;;;6.41;69.94
70338;BME280;57757;53.198;19.646;2023-04-02T12:59:37;100307.24;;;6.43;69.84
70338;BME280;57757;53.198;19.646;2023-04-02T13:02:24;100314.47;;;6.50;70.01
70338;BME280;57757;53.198;19.646;2023-04-02T13:05:00;100318.91;;;6.62;70.15
70338;BME280;57757;53.198;19.646;2023-04-02T13:07:32;100322.98;;;6.75;70.12
70338;BME280;57757;53.198;19.646;2023-04-02T13:10:03;100328.43;;;6.86;70.10
70338;BME280;57757;53.198;19.646;2023-04-02T13:12:36;100323.71;;;6.96;69.99
70338;BME280;57757;53.198;19.646;2023-04-02T13:20:56;100333.66;;;7.08;69.27
70338;BME280;57757;53.198;19.646;2023-04-02T13:26:04;100331.92;;;7.08;68.95
70338;BME280;57757;53.198;19.646;2023-04-02T13:28:38;100337.44;;;7.10;68.87
70338;BME280;57757;53.198;19.646;2023-04-02T13:31:16;100343.81;;;7.13;68.80
70338;BME280;57757;53.198;19.646;2023-04-02T13:33:44;100349.71;;;7.12;68.74
70338;BME280;57757;53.198;19.646;2023-04-02T13:36:13;100354.71;;;7.13;68.81
70338;BME280;57757;53.198;19.646;2023-04-02T13:38:41;100348.34;;;7.11;68.69
70338;BME280;57757;53.198;19.646;2023-04-02T13:41:30;100357.52;;;7.07;68.61
70338;BME280;57757;53.198;19.646;2023-04-02T13:44:00;100363.27;;;7.01;68.66
70338;BME280;57757;53.198;19.646;2023-04-02T13:46:32;100367.61;;;7.01;68.55
70338;BME280;57757;53.198;19.646;2023-04-02T13:49:00;100373.99;;;6.99;68.54
70338;BME280;57757;53.198;19.646;2023-04-02T13:51:41;100376.94;;;6.99;68.59
70338;BME280;57757;53.198;19.646;2023-04-02T13:57:02;100379.05;;;6.96;68.43
70338;BME280;57757;53.198;19.646;2023-04-02T13:59:29;100379.56;;;6.97;68.51
70338;BME280;57757;53.198;19.646;2023-04-02T14:02:02;100381.64;;;6.96;68.39
70338;BME280;57757;53.198;19.646;2023-04-02T14:04:38;100384.75;;;6.96;68.39
70338;BME280;57757;53.198;19.646;2023-04-02T14:07:23;100380.25;;;6.95;68.40
70338;BME280;57757;53.198;19.646;2023-04-02T14:24:13;100402.53;;;6.99;67.74
70338;BME280;57757;53.198;19.646;2023-04-02T14:35:45;100414.02;;;6.85;67.51
70338;BME280;57757;53.198;19.646;2023-04-02T14:39:16;100414.02;;;6.85;67.47
70338;BME280;57757;53.198;19.646;2023-04-02T14:41:27;100419.17;;;6.90;67.55
70338;BME280;57757;53.198;19.646;2023-04-02T14:44:04;100420.88;;;6.94;67.50
70338;BME280;57757;53.198;19.646;2023-04-02T14:46:36;100421.22;;;6.95;67.28
70338;BME280;57757;53.198;19.646;2023-04-02T14:56:57;100434.84;;;7.02;66.85
70338;BME280;57757;53.198;19.646;2023-04-02T14:59:32;100433.98;;;7.04;66.82
70338;BME280;57757;53.198;19.646;2023-04-02T15:02:11;100437.09;;;7.04;66.81
70338;BME280;57757;53.198;19.646;2023-04-02T15:04:52;100437.24;;;7.05;66.81
70338;BME280;57757;53.198;19.646;2023-04-02T15:07:32;100448.50;;;7.04;66.53
70338;BME280;57757;53.198;19.646;2023-04-02T15:13:05;100459.07;;;6.99;66.44
70338;BME280;57757;53.198;19.646;2023-04-02T15:18:13;100460.98;;;6.98;66.43
70338;BME280;57757;53.198;19.646;2023-04-02T15:20:53;100467.20;;;6.97;66.50
70338;BME280;57757;53.198;19.646;2023-04-02T15:26:11;100475.00;;;6.92;66.32
70338;BME280;57757;53.198;19.646;2023-04-02T15:29:47;100476.94;;;6.88;66.31
70338;BME280;57757;53.198;19.646;2023-04-02T15:32:05;100485.59;;;6.85;66.34
70338;BME280;57757;53.198;19.646;2023-04-02T15:34:43;100489.04;;;6.86;66.43
70338;BME280;57757;53.198;19.646;2023-04-02T15:37:22;100494.03;;;6.86;66.37
70338;BME280;57757;53.198;19.646;2023-04-02T15:40:06;100496.83;;;6.84;66.07
70338;BME280;57757;53.198;19.646;2023-04-02T15:42:50;100500.64;;;6.80;65.92
70338;BME280;57757;53.198;19.646;2023-04-02T15:45:25;100506.01;;;6.75;65.88
70338;BME280;57757;53.198;19.646;2023-04-02T15:50:43;100519.16;;;6.63;65.69
70338;BME280;57757;53.198;19.646;2023-04-02T15:59:43;100524.02;;;6.50;65.45
70338;BME280;57757;53.198;19.646;2023-04-02T16:10:42;100542.19;;;6.38;65.33
70338;BME280;57757;53.198;19.646;2023-04-02T16:13:31;100547.36;;;6.38;65.28
70338;BME280;57757;53.198;19.646;2023-04-02T16:16:20;100548.94;;;6.39;65.30
70338;BME280;57757;53.198;19.646;2023-04-02T16:21:52;100555.31;;;6.37;65.28
70338;BME280;57757;53.198;19.646;2023-04-02T16:24:25;100562.40;;;6.37;65.33
70338;BME280;57757;53.198;19.646;2023-04-02T16:27:14;100562.91;;;6.37;65.26
70338;BME280;57757;53.198;19.646;2023-04-02T16:35:28;100568.44;;;6.49;65.21
70338;BME280;57757;53.198;19.646;2023-04-02T16:38:17;100571.37;;;6.58;65.28
70338;BME280;57757;53.198;19.646;2023-04-02T16:57:32;100589.58;;;8.42;63.86
70338;BME280;57757;53.198;19.646;2023-04-02T17:00:36;100596.40;;;8.05;63.43
70338;BME280;57757;53.198;19.646;2023-04-02T17:08:51;100609.48;;;7.10;63.24
70338;BME280;57757;53.198;19.646;2023-04-02T17:11:35;100615.23;;;6.86;63.09
70338;BME280;57757;53.198;19.646;2023-04-02T17:14:23;100625.63;;;6.66;63.32
70338;BME280;57757;53.198;19.646;2023-04-02T17:17:01;100624.08;;;6.48;63.23
70338;BME280;57757;53.198;19.646;2023-04-02T17:19:31;100630.28;;;6.33;63.34
70338;BME280;57757;53.198;19.646;2023-04-02T17:22:02;100633.20;;;6.20;63.19
70338;BME280;57757;53.198;19.646;2023-04-02T17:27:37;100646.45;;;5.95;63.16
70338;BME280;57757;53.198;19.646;2023-04-02T17:32:56;100653.76;;;5.70;63.08
70338;BME280;57757;53.198;19.646;2023-04-02T17:35:51;100658.72;;;5.60;62.97
70338;BME280;57757;53.198;19.646;2023-04-02T17:38:32;100667.13;;;5.50;62.97
70338;BME280;57757;53.198;19.646;2023-04-02T17:41:22;100671.03;;;5.39;62.99
70338;BME280;57757;53.198;19.646;2023-04-02T17:46:33;100686.75;;;5.13;62.92
70338;BME280;57757;53.198;19.646;2023-04-02T17:49:24;100691.50;;;5.02;62.73
70338;BME280;57757;53.198;19.646;2023-04-02T17:54:31;100698.05;;;4.79;62.69
70338;BME280;57757;53.198;19.646;2023-04-02T18:05:40;100715.82;;;4.44;62.44
70338;BME280;57757;53.198;19.646;2023-04-02T18:11:16;100723.21;;;4.27;62.29
70338;BME280;57757;53.198;19.646;2023-04-02T18:13:58;100728.66;;;4.19;62.35
70338;BME280;57757;53.198;19.646;2023-04-02T18:19:37;100737.27;;;4.05;62.24
70338;BME280;57757;53.198;19.646;2023-04-02T18:27:48;100753.88;;;3.85;62.13
70338;BME280;57757;53.198;19.646;2023-04-02T18:30:27;100757.08;;;3.80;62.09
70338;BME280;57757;53.198;19.646;2023-04-02T18:36:13;100764.52;;;3.70;62.19
70338;BME280;57757;53.198;19.646;2023-04-02T18:41:41;100778.77;;;3.57;62.07
70338;BME280;57757;53.198;19.646;2023-04-02T18:46:53;100782.94;;;3.47;62.09
70338;BME280;57757;53.198;19.646;2023-04-02T18:49:34;100787.16;;;3.42;62.25
70338;BME280;57757;53.198;19.646;2023-04-02T18:52:11;100790.51;;;3.36;62.15
70338;BME280;57757;53.198;19.646;2023-04-02T18:54:50;100795.75;;;3.30;62.20
70338;BME280;57757;53.198;19.646;2023-04-02T18:57:25;100800.30;;;3.25;62.29
70338;BME280;57757;53.198;19.646;2023-04-02T19:05:53;100815.55;;;3.11;62.20
70338;BME280;57757;53.198;19.646;2023-04-02T19:09:23;100817.89;;;3.08;62.23